sensor_id;sensor_type;location;lat;lon;timestamp;P1;durP1;ratioP1;P2;durP2;ratioP2
23578;SDS011;11967;50.852;4.400;2022-12-29T00:01:49;2.97;;;1.80;;
23578;SDS011;11967;50.852;4.400;2022-12-29T00:04:16;2.47;;;1.40;;
23578;SDS011;11967;50.852;4.400;2022-12-29T00:06:42;3.13;;;1.50;;
23578;SDS011;11967;50.852;4.400;2022-12-29T00:09:08;3.25;;;1.38;;
23578;SDS011;11967;50.852;4.400;2022-12-29T00:11:36;2.33;;;1.30;;
23578;SDS011;11967;50.852;4.400;2022-12-29T00:14:02;3.10;;;1.23;;
23578;SDS011;11967;50.852;4.400;2022-12-29T00:16:46;3.40;;;1.20;;
23578;SDS011;11967;50.852;4.400;2022-12-29T00:19:12;3.75;;;1.50;;
23578;SDS011;11967;50.852;4.400;2022-12-29T00:21:56;3.97;;;1.55;;
23578;SDS011;11967;50.852;4.400;2022-12-29T00:24:41;4.38;;;1.30;;
23578;SDS011;11967;50.852;4.400;2022-12-29T00:27:27;4.63;;;1.38;;
23578;SDS011;11967;50.852;4.400;2022-12-29T00:30:14;3.13;;;1.30;;
23578;SDS011;11967;50.852;4.400;2022-12-29T00:33:00;4.57;;;1.20;;
23578;SDS011;11967;50.852;4.400;2022-12-29T00:35:52;2.75;;;1.10;;
23578;SDS011;11967;50.852;4.400;2022-12-29T00:38:37;4.45;;;1.00;;
23578;SDS011;11967;50.852;4.400;2022-12-29T00:41:26;5.95;;;1.20;;
23578;SDS011;11967;50.852;4.400;2022-12-29T00:44:11;3.60;;;1.10;;
23578;SDS011;11967;50.852;4.400;2022-12-29T00:46:39;4.00;;;1.30;;
23578;SDS011;11967;50.852;4.400;2022-12-29T00:49:08;3.05;;;1.23;;
23578;SDS011;11967;50.852;4.400;2022-12-29T00:51:55;7.15;;;1.15;;
23578;SDS011;11967;50.852;4.400;2022-12-29T00:54:32;2.53;;;1.15;;
23578;SDS011;11967;50.852;4.400;2022-12-29T00:56:59;3.03;;;1.10;;
23578;SDS011;11967;50.852;4.400;2022-12-29T00:59:26;7.03;;;1.13;;
23578;SDS011;11967;50.852;4.400;2022-12-29T01:01:52;7.53;;;1.55;;
23578;SDS011;11967;50.852;4.400;2022-12-29T01:04:19;5.45;;;1.17;;
23578;SDS011;11967;50.852;4.400;2022-12-29T01:06:46;5.80;;;1.52;;
23578;SDS011;11967;50.852;4.400;2022-12-29T01:09:11;2.97;;;1.05;;
23578;SDS011;11967;50.852;4.400;2022-12-29T01:11:56;4.35;;;1.10;;
23578;SDS011;11967;50.852;4.400;2022-12-29T01:14:22;8.32;;;1.40;;
23578;SDS011;11967;50.852;4.400;2022-12-29T01:16:48;3.22;;;1.17;;
23578;SDS011;11967;50.852;4.400;2022-12-29T01:19:18;4.32;;;1.48;;
23578;SDS011;11967;50.852;4.400;2022-12-29T01:21:44;4.55;;;1.75;;
23578;SDS011;11967;50.852;4.400;2022-12-29T01:24:10;4.07;;;1.20;;
23578;SDS011;11967;50.852;4.400;2022-12-29T01:26:36;6.07;;;1.30;;
23578;SDS011;11967;50.852;4.400;2022-12-29T01:29:02;4.25;;;1.27;;
23578;SDS011;11967;50.852;4.400;2022-12-29T01:31:27;8.38;;;1.85;;
23578;SDS011;11967;50.852;4.400;2022-12-29T01:33:53;8.18;;;1.70;;
23578;SDS011;11967;50.852;4.400;2022-12-29T01:36:19;6.55;;;1.95;;
23578;SDS011;11967;50.852;4.400;2022-12-29T01:38:45;4.72;;;1.60;;
23578;SDS011;11967;50.852;4.400;2022-12-29T01:41:11;3.72;;;1.55;;
23578;SDS011;11967;50.852;4.400;2022-12-29T01:43:47;3.58;;;1.33;;
23578;SDS011;11967;50.852;4.400;2022-12-29T01:46:20;2.95;;;1.35;;
23578;SDS011;11967;50.852;4.400;2022-12-29T01:48:55;4.15;;;1.50;;
23578;SDS011;11967;50.852;4.400;2022-12-29T01:51:26;4.93;;;1.33;;
23578;SDS011;11967;50.852;4.400;2022-12-29T01:53:56;3.75;;;1.40;;
23578;SDS011;11967;50.852;4.400;2022-12-29T01:56:26;3.78;;;1.20;;
23578;SDS011;11967;50.852;4.400;2022-12-29T01:58:56;4.55;;;1.60;;
23578;SDS011;11967;50.852;4.400;2022-12-29T02:01:31;4.45;;;1.30;;
23578;SDS011;11967;50.852;4.400;2022-12-29T02:03:57;3.63;;;1.10;;
23578;SDS011;11967;50.852;4.400;2022-12-29T02:06:25;2.42;;;0.82;;
23578;SDS011;11967;50.852;4.400;2022-12-29T02:08:56;2.67;;;0.87;;
23578;SDS011;11967;50.852;4.400;2022-12-29T02:11:23;3.80;;;0.95;;
23578;SDS011;11967;50.852;4.400;2022-12-29T02:13:51;2.50;;;0.90;;
23578;SDS011;11967;50.852;4.400;2022-12-29T02:24:09;4.38;;;0.98;;
23578;SDS011;11967;50.852;4.400;2022-12-29T02:29:24;2.92;;;0.80;;
23578;SDS011;11967;50.852;4.400;2022-12-29T02:35:48;4.43;;;0.70;;
23578;SDS011;11967;50.852;4.400;2022-12-29T02:40:26;4.50;;;0.90;;
23578;SDS011;11967;50.852;4.400;2022-12-29T02:46:00;2.55;;;0.80;;
23578;SDS011;11967;50.852;4.400;2022-12-29T02:48:52;1.17;;;0.47;;
23578;SDS011;11967;50.852;4.400;2022-12-29T02:51:52;1.57;;;0.50;;
23578;SDS011;11967;50.852;4.400;2022-12-29T02:54:23;3.50;;;0.90;;
23578;SDS011;11967;50.852;4.400;2022-12-29T02:59:37;2.15;;;0.80;;
23578;SDS011;11967;50.852;4.400;2022-12-29T03:21:36;3.72;;;1.00;;
23578;SDS011;11967;50.852;4.400;2022-12-29T03:24:28;2.83;;;0.90;;
23578;SDS011;11967;50.852;4.400;2022-12-29T03:27:01;7.55;;;1.23;;
23578;SDS011;11967;50.852;4.400;2022-12-29T03:29:29;4.30;;;1.00;;
23578;SDS011;11967;50.852;4.400;2022-12-29T03:31:59;4.45;;;1.00;;
23578;SDS011;11967;50.852;4.400;2022-12-29T03:34:26;4.65;;;1.00;;
23578;SDS011;11967;50.852;4.400;2022-12-29T03:37:13;3.42;;;0.88;;
23578;SDS011;11967;50.852;4.400;2022-12-29T03:39:41;2.65;;;0.90;;
23578;SDS011;11967;50.852;4.400;2022-12-29T03:42:13;3.97;;;0.95;;
23578;SDS011;11967;50.852;4.400;2022-12-29T03:44:42;2.13;;;0.90;;
23578;SDS011;11967;50.852;4.400;2022-12-29T03:47:12;3.35;;;1.13;;
23578;SDS011;11967;50.852;4.400;2022-12-29T03:49:39;5.32;;;1.10;;
23578;SDS011;11967;50.852;4.400;2022-12-29T03:52:06;5.47;;;1.10;;
23578;SDS011;11967;50.852;4.400;2022-12-29T03:54:31;3.85;;;1.02;;
23578;SDS011;11967;50.852;4.400;2022-12-29T03:56:57;6.20;;;1.08;;
23578;SDS011;11967;50.852;4.400;2022-12-29T03:59:23;2.20;;;1.20;;
23578;SDS011;11967;50.852;4.400;2022-12-29T04:01:48;4.82;;;0.90;;
23578;SDS011;11967;50.852;4.400;2022-12-29T04:04:14;5.60;;;1.00;;
23578;SDS011;11967;50.852;4.400;2022-12-29T04:06:40;5.80;;;1.48;;
23578;SDS011;11967;50.852;4.400;2022-12-29T04:09:06;6.65;;;1.10;;
23578;SDS011;11967;50.852;4.400;2022-12-29T04:11:31;5.70;;;1.20;;
23578;SDS011;11967;50.852;4.400;2022-12-29T04:13:57;7.15;;;1.30;;
23578;SDS011;11967;50.852;4.400;2022-12-29T04:16:23;8.90;;;1.40;;
23578;SDS011;11967;50.852;4.400;2022-12-29T04:18:48;4.57;;;1.00;;
23578;SDS011;11967;50.852;4.400;2022-12-29T04:21:14;6.22;;;1.30;;
23578;SDS011;11967;50.852;4.400;2022-12-29T04:23:40;3.33;;;1.17;;
23578;SDS011;11967;50.852;4.400;2022-12-29T04:26:06;7.13;;;1.50;;
23578;SDS011;11967;50.852;4.400;2022-12-29T04:28:32;7.75;;;1.40;;
23578;SDS011;11967;50.852;4.400;2022-12-29T04:30:58;8.40;;;1.23;;
23578;SDS011;11967;50.852;4.400;2022-12-29T04:33:24;4.78;;;1.65;;
23578;SDS011;11967;50.852;4.400;2022-12-29T04:35:51;5.70;;;1.20;;
23578;SDS011;11967;50.852;4.400;2022-12-29T04:38:19;6.85;;;1.63;;
23578;SDS011;11967;50.852;4.400;2022-12-29T04:40:45;3.47;;;1.08;;
23578;SDS011;11967;50.852;4.400;2022-12-29T04:43:11;4.20;;;1.10;;
23578;SDS011;11967;50.852;4.400;2022-12-29T04:45:38;6.30;;;1.40;;
23578;SDS011;11967;50.852;4.400;2022-12-29T04:48:08;7.25;;;1.48;;
23578;SDS011;11967;50.852;4.400;2022-12-29T04:50:34;9.77;;;1.70;;
23578;SDS011;11967;50.852;4.400;2022-12-29T04:52:59;6.68;;;1.50;;
23578;SDS011;11967;50.852;4.400;2022-12-29T04:55:25;6.57;;;1.55;;
23578;SDS011;11967;50.852;4.400;2022-12-29T04:57:51;4.25;;;1.30;;
23578;SDS011;11967;50.852;4.400;2022-12-29T05:00:16;7.90;;;1.33;;
23578;SDS011;11967;50.852;4.400;2022-12-29T05:02:42;8.18;;;1.63;;
23578;SDS011;11967;50.852;4.400;2022-12-29T05:05:08;6.20;;;1.58;;
23578;SDS011;11967;50.852;4.400;2022-12-29T05:07:33;7.32;;;1.73;;
23578;SDS011;11967;50.852;4.400;2022-12-29T05:09:59;6.60;;;1.27;;
23578;SDS011;11967;50.852;4.400;2022-12-29T05:12:24;8.80;;;1.40;;
23578;SDS011;11967;50.852;4.400;2022-12-29T05:14:50;10.70;;;1.67;;
23578;SDS011;11967;50.852;4.400;2022-12-29T05:17:16;9.00;;;1.50;;
23578;SDS011;11967;50.852;4.400;2022-12-29T05:19:41;11.13;;;1.63;;
23578;SDS011;11967;50.852;4.400;2022-12-29T05:22:07;8.07;;;1.60;;
23578;SDS011;11967;50.852;4.400;2022-12-29T05:24:33;6.07;;;1.30;;
23578;SDS011;11967;50.852;4.400;2022-12-29T05:26:59;6.22;;;1.30;;
23578;SDS011;11967;50.852;4.400;2022-12-29T05:29:25;7.07;;;1.48;;
23578;SDS011;11967;50.852;4.400;2022-12-29T05:31:50;9.15;;;1.67;;
23578;SDS011;11967;50.852;4.400;2022-12-29T05:34:16;9.07;;;2.03;;
23578;SDS011;11967;50.852;4.400;2022-12-29T05:36:41;7.60;;;1.35;;
23578;SDS011;11967;50.852;4.400;2022-12-29T05:39:07;9.30;;;1.50;;
23578;SDS011;11967;50.852;4.400;2022-12-29T05:41:33;12.40;;;1.70;;
23578;SDS011;11967;50.852;4.400;2022-12-29T05:43:59;11.50;;;1.90;;
23578;SDS011;11967;50.852;4.400;2022-12-29T05:46:25;7.15;;;1.55;;
23578;SDS011;11967;50.852;4.400;2022-12-29T05:48:51;7.65;;;1.73;;
23578;SDS011;11967;50.852;4.400;2022-12-29T05:51:16;8.27;;;1.50;;
23578;SDS011;11967;50.852;4.400;2022-12-29T05:53:42;10.93;;;1.98;;
23578;SDS011;11967;50.852;4.400;2022-12-29T05:56:07;11.23;;;1.85;;
23578;SDS011;11967;50.852;4.400;2022-12-29T05:58:34;7.50;;;1.80;;
23578;SDS011;11967;50.852;4.400;2022-12-29T06:01:01;11.05;;;1.88;;
23578;SDS011;11967;50.852;4.400;2022-12-29T06:03:26;9.13;;;1.73;;
23578;SDS011;11967;50.852;4.400;2022-12-29T06:05:53;7.97;;;1.88;;
23578;SDS011;11967;50.852;4.400;2022-12-29T06:08:19;11.70;;;1.95;;
23578;SDS011;11967;50.852;4.400;2022-12-29T06:10:45;11.27;;;1.92;;
23578;SDS011;11967;50.852;4.400;2022-12-29T06:13:11;13.25;;;2.00;;
23578;SDS011;11967;50.852;4.400;2022-12-29T06:15:36;14.43;;;2.22;;
23578;SDS011;11967;50.852;4.400;2022-12-29T06:18:02;10.45;;;2.08;;
23578;SDS011;11967;50.852;4.400;2022-12-29T06:20:27;9.50;;;1.90;;
23578;SDS011;11967;50.852;4.400;2022-12-29T06:22:53;9.20;;;1.70;;
23578;SDS011;11967;50.852;4.400;2022-12-29T06:25:19;10.63;;;2.10;;
23578;SDS011;11967;50.852;4.400;2022-12-29T06:27:44;10.70;;;2.08;;
23578;SDS011;11967;50.852;4.400;2022-12-29T06:30:10;12.55;;;2.33;;
23578;SDS011;11967;50.852;4.400;2022-12-29T06:32:36;10.93;;;2.22;;
23578;SDS011;11967;50.852;4.400;2022-12-29T06:35:02;14.80;;;1.92;;
23578;SDS011;11967;50.852;4.400;2022-12-29T06:37:29;10.90;;;2.10;;
23578;SDS011;11967;50.852;4.400;2022-12-29T06:39:55;12.75;;;2.63;;
23578;SDS011;11967;50.852;4.400;2022-12-29T06:42:20;12.13;;;2.33;;
23578;SDS011;11967;50.852;4.400;2022-12-29T06:44:46;10.73;;;2.10;;
23578;SDS011;11967;50.852;4.400;2022-12-29T06:47:12;16.65;;;2.60;;
23578;SDS011;11967;50.852;4.400;2022-12-29T06:49:38;11.55;;;1.70;;
23578;SDS011;11967;50.852;4.400;2022-12-29T06:52:04;13.52;;;1.92;;
23578;SDS011;11967;50.852;4.400;2022-12-29T06:54:30;12.68;;;2.30;;
23578;SDS011;11967;50.852;4.400;2022-12-29T06:56:56;8.82;;;1.60;;
23578;SDS011;11967;50.852;4.400;2022-12-29T06:59:22;9.77;;;2.00;;
23578;SDS011;11967;50.852;4.400;2022-12-29T07:01:48;12.18;;;2.00;;
23578;SDS011;11967;50.852;4.400;2022-12-29T07:04:13;10.57;;;1.88;;
23578;SDS011;11967;50.852;4.400;2022-12-29T07:06:39;10.48;;;2.13;;
23578;SDS011;11967;50.852;4.400;2022-12-29T07:09:05;13.40;;;1.92;;
23578;SDS011;11967;50.852;4.400;2022-12-29T07:11:31;8.43;;;2.03;;
23578;SDS011;11967;50.852;4.400;2022-12-29T07:13:58;8.48;;;1.83;;
23578;SDS011;11967;50.852;4.400;2022-12-29T07:16:24;12.35;;;2.05;;
23578;SDS011;11967;50.852;4.400;2022-12-29T07:18:49;11.25;;;1.80;;
23578;SDS011;11967;50.852;4.400;2022-12-29T07:21:16;9.98;;;2.30;;
23578;SDS011;11967;50.852;4.400;2022-12-29T07:23:42;12.10;;;2.40;;
23578;SDS011;11967;50.852;4.400;2022-12-29T07:26:09;12.30;;;2.20;;
23578;SDS011;11967;50.852;4.400;2022-12-29T07:28:37;13.43;;;2.13;;
23578;SDS011;11967;50.852;4.400;2022-12-29T07:31:03;16.10;;;5.03;;
23578;SDS011;11967;50.852;4.400;2022-12-29T07:33:30;14.05;;;2.10;;
23578;SDS011;11967;50.852;4.400;2022-12-29T07:35:57;10.80;;;2.13;;
23578;SDS011;11967;50.852;4.400;2022-12-29T07:38:23;15.52;;;2.70;;
23578;SDS011;11967;50.852;4.400;2022-12-29T07:43:59;12.90;;;2.17;;
23578;SDS011;11967;50.852;4.400;2022-12-29T07:46:25;15.50;;;2.35;;
23578;SDS011;11967;50.852;4.400;2022-12-29T07:48:51;14.73;;;2.55;;
23578;SDS011;11967;50.852;4.400;2022-12-29T07:51:16;11.27;;;1.92;;
23578;SDS011;11967;50.852;4.400;2022-12-29T07:53:42;15.05;;;2.50;;
23578;SDS011;11967;50.852;4.400;2022-12-29T07:56:07;13.45;;;2.35;;
23578;SDS011;11967;50.852;4.400;2022-12-29T07:58:33;15.27;;;2.55;;
23578;SDS011;11967;50.852;4.400;2022-12-29T08:00:59;14.88;;;1.95;;
23578;SDS011;11967;50.852;4.400;2022-12-29T08:03:24;11.65;;;2.05;;
23578;SDS011;11967;50.852;4.400;2022-12-29T08:05:50;10.30;;;2.03;;
23578;SDS011;11967;50.852;4.400;2022-12-29T08:08:16;10.98;;;1.90;;
23578;SDS011;11967;50.852;4.400;2022-12-29T08:10:42;14.07;;;2.20;;
23578;SDS011;11967;50.852;4.400;2022-12-29T08:13:08;17.17;;;2.50;;
23578;SDS011;11967;50.852;4.400;2022-12-29T08:15:33;16.50;;;3.00;;
23578;SDS011;11967;50.852;4.400;2022-12-29T08:17:59;19.23;;;2.53;;
23578;SDS011;11967;50.852;4.400;2022-12-29T08:20:25;14.82;;;2.20;;
23578;SDS011;11967;50.852;4.400;2022-12-29T08:22:50;14.52;;;2.17;;
23578;SDS011;11967;50.852;4.400;2022-12-29T08:25:16;15.00;;;2.45;;
23578;SDS011;11967;50.852;4.400;2022-12-29T08:27:42;11.77;;;2.47;;
23578;SDS011;11967;50.852;4.400;2022-12-29T08:30:08;13.63;;;2.50;;
23578;SDS011;11967;50.852;4.400;2022-12-29T08:32:34;9.77;;;1.90;;
23578;SDS011;11967;50.852;4.400;2022-12-29T08:34:59;12.45;;;2.10;;
23578;SDS011;11967;50.852;4.400;2022-12-29T08:37:25;15.05;;;2.22;;
23578;SDS011;11967;50.852;4.400;2022-12-29T08:39:51;15.38;;;2.90;;
23578;SDS011;11967;50.852;4.400;2022-12-29T08:42:16;12.98;;;2.33;;
23578;SDS011;11967;50.852;4.400;2022-12-29T08:44:42;14.25;;;2.25;;
23578;SDS011;11967;50.852;4.400;2022-12-29T08:47:09;15.98;;;2.78;;
23578;SDS011;11967;50.852;4.400;2022-12-29T08:49:35;12.77;;;2.58;;
23578;SDS011;11967;50.852;4.400;2022-12-29T08:52:01;14.00;;;3.10;;
23578;SDS011;11967;50.852;4.400;2022-12-29T08:54:27;11.98;;;2.20;;
23578;SDS011;11967;50.852;4.400;2022-12-29T08:56:54;12.82;;;2.58;;
23578;SDS011;11967;50.852;4.400;2022-12-29T08:59:20;13.13;;;2.67;;
23578;SDS011;11967;50.852;4.400;2022-12-29T09:01:47;14.70;;;2.50;;
23578;SDS011;11967;50.852;4.400;2022-12-29T09:04:13;13.40;;;2.97;;
23578;SDS011;11967;50.852;4.400;2022-12-29T09:06:40;13.98;;;2.67;;
23578;SDS011;11967;50.852;4.400;2022-12-29T09:09:05;13.88;;;2.88;;
23578;SDS011;11967;50.852;4.400;2022-12-29T09:11:33;10.95;;;2.22;;
23578;SDS011;11967;50.852;4.400;2022-12-29T09:14:00;15.45;;;2.65;;
23578;SDS011;11967;50.852;4.400;2022-12-29T09:16:26;13.07;;;2.22;;
23578;SDS011;11967;50.852;4.400;2022-12-29T09:18:54;10.95;;;2.20;;
23578;SDS011;11967;50.852;4.400;2022-12-29T09:21:21;13.20;;;2.75;;
23578;SDS011;11967;50.852;4.400;2022-12-29T09:23:50;17.92;;;2.60;;
23578;SDS011;11967;50.852;4.400;2022-12-29T09:26:16;9.95;;;1.90;;
23578;SDS011;11967;50.852;4.400;2022-12-29T09:28:42;14.30;;;2.72;;
23578;SDS011;11967;50.852;4.400;2022-12-29T09:31:10;13.20;;;2.50;;
23578;SDS011;11967;50.852;4.400;2022-12-29T09:33:36;13.77;;;2.42;;
23578;SDS011;11967;50.852;4.400;2022-12-29T09:36:03;14.98;;;2.50;;
23578;SDS011;11967;50.852;4.400;2022-12-29T09:38:31;13.05;;;2.50;;
23578;SDS011;11967;50.852;4.400;2022-12-29T09:46:43;18.58;;;2.90;;
23578;SDS011;11967;50.852;4.400;2022-12-29T09:51:43;18.33;;;3.08;;
23578;SDS011;11967;50.852;4.400;2022-12-29T09:54:36;14.98;;;2.83;;
23578;SDS011;11967;50.852;4.400;2022-12-29T10:05:02;14.65;;;2.63;;
23578;SDS011;11967;50.852;4.400;2022-12-29T10:07:50;17.40;;;2.95;;
23578;SDS011;11967;50.852;4.400;2022-12-29T10:13:25;14.23;;;2.40;;
23578;SDS011;11967;50.852;4.400;2022-12-29T10:23:52;13.98;;;3.10;;
23578;SDS011;11967;50.852;4.400;2022-12-29T10:26:31;20.20;;;3.30;;
23578;SDS011;11967;50.852;4.400;2022-12-29T10:29:03;18.60;;;3.58;;
23578;SDS011;11967;50.852;4.400;2022-12-29T10:31:33;12.75;;;3.00;;
23578;SDS011;11967;50.852;4.400;2022-12-29T10:34:31;17.83;;;3.55;;
23578;SDS011;11967;50.852;4.400;2022-12-29T10:37:00;16.80;;;3.22;;
23578;SDS011;11967;50.852;4.400;2022-12-29T10:39:37;21.92;;;4.00;;
23578;SDS011;11967;50.852;4.400;2022-12-29T10:47:17;18.60;;;3.75;;
23578;SDS011;11967;50.852;4.400;2022-12-29T10:52:16;16.95;;;2.90;;
23578;SDS011;11967;50.852;4.400;2022-12-29T10:54:52;20.73;;;2.90;;
23578;SDS011;11967;50.852;4.400;2022-12-29T10:57:24;29.25;;;22.08;;
23578;SDS011;11967;50.852;4.400;2022-12-29T10:59:57;24.00;;;5.65;;
23578;SDS011;11967;50.852;4.400;2022-12-29T11:02:38;18.05;;;4.72;;
23578;SDS011;11967;50.852;4.400;2022-12-29T11:05:27;20.88;;;7.03;;
23578;SDS011;11967;50.852;4.400;2022-12-29T11:08:17;15.18;;;2.83;;
23578;SDS011;11967;50.852;4.400;2022-12-29T11:10:46;19.23;;;3.00;;
23578;SDS011;11967;50.852;4.400;2022-12-29T11:13:26;17.92;;;3.00;;
23578;SDS011;11967;50.852;4.400;2022-12-29T11:15:53;13.50;;;2.58;;
23578;SDS011;11967;50.852;4.400;2022-12-29T11:20:50;14.15;;;2.63;;
23578;SDS011;11967;50.852;4.400;2022-12-29T11:23:23;13.07;;;2.67;;
23578;SDS011;11967;50.852;4.400;2022-12-29T11:31:41;15.98;;;2.97;;
23578;SDS011;11967;50.852;4.400;2022-12-29T11:34:08;19.90;;;3.33;;
23578;SDS011;11967;50.852;4.400;2022-12-29T11:36:41;21.60;;;3.17;;
23578;SDS011;11967;50.852;4.400;2022-12-29T11:39:06;15.00;;;3.03;;
23578;SDS011;11967;50.852;4.400;2022-12-29T11:41:52;14.23;;;2.65;;
23578;SDS011;11967;50.852;4.400;2022-12-29T11:44:20;13.57;;;2.88;;
23578;SDS011;11967;50.852;4.400;2022-12-29T11:46:46;16.20;;;2.92;;
23578;SDS011;11967;50.852;4.400;2022-12-29T11:49:19;17.38;;;2.85;;
23578;SDS011;11967;50.852;4.400;2022-12-29T11:51:48;15.50;;;3.30;;
23578;SDS011;11967;50.852;4.400;2022-12-29T11:54:34;14.98;;;3.13;;
23578;SDS011;11967;50.852;4.400;2022-12-29T11:57:12;13.57;;;2.47;;
23578;SDS011;11967;50.852;4.400;2022-12-29T11:59:42;16.27;;;3.42;;
23578;SDS011;11967;50.852;4.400;2022-12-29T12:04:57;17.85;;;3.28;;
23578;SDS011;11967;50.852;4.400;2022-12-29T12:10:11;20.08;;;4.78;;
23578;SDS011;11967;50.852;4.400;2022-12-29T12:15:46;19.70;;;3.40;;
23578;SDS011;11967;50.852;4.400;2022-12-29T12:20:58;14.48;;;2.90;;
23578;SDS011;11967;50.852;4.400;2022-12-29T12:26:32;14.52;;;3.40;;
23578;SDS011;11967;50.852;4.400;2022-12-29T12:29:11;16.10;;;2.90;;
23578;SDS011;11967;50.852;4.400;2022-12-29T12:34:39;19.63;;;3.30;;
23578;SDS011;11967;50.852;4.400;2022-12-29T13:02:49;10.90;;;2.50;;
23578;SDS011;11967;50.852;4.400;2022-12-29T13:10:51;17.92;;;3.10;;
23578;SDS011;11967;50.852;4.400;2022-12-29T13:14:08;13.60;;;2.58;;
23578;SDS011;11967;50.852;4.400;2022-12-29T13:19:30;15.57;;;2.80;;
23578;SDS011;11967;50.852;4.400;2022-12-29T13:22:16;10.95;;;2.20;;
23578;SDS011;11967;50.852;4.400;2022-12-29T13:25:08;12.93;;;3.10;;
23578;SDS011;11967;50.852;4.400;2022-12-29T13:28:06;15.40;;;2.30;;
23578;SDS011;11967;50.852;4.400;2022-12-29T13:31:08;16.52;;;2.65;;
23578;SDS011;11967;50.852;4.400;2022-12-29T13:34:01;13.15;;;2.10;;
23578;SDS011;11967;50.852;4.400;2022-12-29T13:36:43;11.63;;;2.38;;
23578;SDS011;11967;50.852;4.400;2022-12-29T13:39:23;12.77;;;2.33;;
23578;SDS011;11967;50.852;4.400;2022-12-29T13:41:54;13.85;;;3.00;;
23578;SDS011;11967;50.852;4.400;2022-12-29T13:49:52;14.00;;;2.85;;
23578;SDS011;11967;50.852;4.400;2022-12-29T13:52:25;18.42;;;2.85;;
23578;SDS011;11967;50.852;4.400;2022-12-29T13:55:22;13.77;;;2.70;;
23578;SDS011;11967;50.852;4.400;2022-12-29T14:09:00;13.57;;;3.08;;
23578;SDS011;11967;50.852;4.400;2022-12-29T14:11:37;12.60;;;2.95;;
23578;SDS011;11967;50.852;4.400;2022-12-29T14:14:41;16.02;;;3.28;;
23578;SDS011;11967;50.852;4.400;2022-12-29T14:17:10;15.02;;;3.53;;
23578;SDS011;11967;50.852;4.400;2022-12-29T14:19:39;15.10;;;2.70;;
23578;SDS011;11967;50.852;4.400;2022-12-29T14:22:07;15.15;;;2.83;;
23578;SDS011;11967;50.852;4.400;2022-12-29T14:35:01;18.10;;;3.70;;
23578;SDS011;11967;50.852;4.400;2022-12-29T14:38:05;18.27;;;3.72;;
23578;SDS011;11967;50.852;4.400;2022-12-29T14:40:43;19.85;;;3.70;;
23578;SDS011;11967;50.852;4.400;2022-12-29T14:43:13;13.82;;;3.20;;
23578;SDS011;11967;50.852;4.400;2022-12-29T14:46:08;17.00;;;2.83;;
23578;SDS011;11967;50.852;4.400;2022-12-29T14:48:39;10.93;;;2.40;;
23578;SDS011;11967;50.852;4.400;2022-12-29T14:51:28;10.10;;;2.30;;
23578;SDS011;11967;50.852;4.400;2022-12-29T14:54:24;13.52;;;2.25;;
23578;SDS011;11967;50.852;4.400;2022-12-29T14:57:01;11.57;;;2.53;;
23578;SDS011;11967;50.852;4.400;2022-12-29T14:59:29;8.07;;;2.38;;
23578;SDS011;11967;50.852;4.400;2022-12-29T15:01:58;9.68;;;2.35;;
23578;SDS011;11967;50.852;4.400;2022-12-29T15:04:32;13.38;;;2.72;;
23578;SDS011;11967;50.852;4.400;2022-12-29T15:07:00;12.77;;;2.67;;
23578;SDS011;11967;50.852;4.400;2022-12-29T15:09:45;10.27;;;2.50;;
23578;SDS011;11967;50.852;4.400;2022-12-29T15:14:51;11.07;;;2.38;;
23578;SDS011;11967;50.852;4.400;2022-12-29T15:19:49;8.15;;;2.13;;
23578;SDS011;11967;50.852;4.400;2022-12-29T15:22:16;6.88;;;1.90;;
23578;SDS011;11967;50.852;4.400;2022-12-29T15:24:43;7.32;;;1.80;;
23578;SDS011;11967;50.852;4.400;2022-12-29T15:27:11;6.57;;;1.55;;
23578;SDS011;11967;50.852;4.400;2022-12-29T15:29:40;7.07;;;1.63;;
23578;SDS011;11967;50.852;4.400;2022-12-29T15:34:46;7.18;;;1.42;;
23578;SDS011;11967;50.852;4.400;2022-12-29T15:37:17;8.45;;;1.88;;
23578;SDS011;11967;50.852;4.400;2022-12-29T15:39:45;7.38;;;1.65;;
23578;SDS011;11967;50.852;4.400;2022-12-29T15:44:46;7.93;;;2.15;;
23578;SDS011;11967;50.852;4.400;2022-12-29T15:47:19;8.07;;;2.53;;
23578;SDS011;11967;50.852;4.400;2022-12-29T15:49:47;13.52;;;3.33;;
23578;SDS011;11967;50.852;4.400;2022-12-29T15:52:19;12.40;;;2.55;;
23578;SDS011;11967;50.852;4.400;2022-12-29T15:54:47;13.60;;;2.88;;
23578;SDS011;11967;50.852;4.400;2022-12-29T15:57:25;11.75;;;2.80;;
23578;SDS011;11967;50.852;4.400;2022-12-29T15:59:53;11.38;;;2.55;;
23578;SDS011;11967;50.852;4.400;2022-12-29T16:02:22;10.52;;;2.70;;
23578;SDS011;11967;50.852;4.400;2022-12-29T16:04:48;14.27;;;2.60;;
23578;SDS011;11967;50.852;4.400;2022-12-29T16:07:29;10.27;;;2.83;;
23578;SDS011;11967;50.852;4.400;2022-12-29T16:10:00;11.45;;;2.83;;
23578;SDS011;11967;50.852;4.400;2022-12-29T16:12:36;13.15;;;3.45;;
23578;SDS011;11967;50.852;4.400;2022-12-29T16:17:32;13.93;;;2.60;;
23578;SDS011;11967;50.852;4.400;2022-12-29T16:20:02;12.68;;;3.22;;
23578;SDS011;11967;50.852;4.400;2022-12-29T16:22:50;15.07;;;3.78;;
23578;SDS011;11967;50.852;4.400;2022-12-29T16:25:25;17.95;;;3.17;;
23578;SDS011;11967;50.852;4.400;2022-12-29T16:27:56;19.83;;;3.58;;
23578;SDS011;11967;50.852;4.400;2022-12-29T16:30:24;18.92;;;3.83;;
23578;SDS011;11967;50.852;4.400;2022-12-29T16:32:51;19.60;;;3.65;;
23578;SDS011;11967;50.852;4.400;2022-12-29T16:35:20;24.02;;;4.55;;
23578;SDS011;11967;50.852;4.400;2022-12-29T16:38:08;15.35;;;4.00;;
23578;SDS011;11967;50.852;4.400;2022-12-29T16:40:55;14.05;;;3.47;;
23578;SDS011;11967;50.852;4.400;2022-12-29T16:43:31;18.60;;;4.07;;
23578;SDS011;11967;50.852;4.400;2022-12-29T16:50:52;25.70;;;4.60;;
23578;SDS011;11967;50.852;4.400;2022-12-29T16:53:52;19.95;;;4.18;;
23578;SDS011;11967;50.852;4.400;2022-12-29T16:56:23;23.45;;;3.83;;
23578;SDS011;11967;50.852;4.400;2022-12-29T16:59:00;16.33;;;3.60;;
23578;SDS011;11967;50.852;4.400;2022-12-29T17:01:29;20.08;;;4.10;;
23578;SDS011;11967;50.852;4.400;2022-12-29T17:04:00;21.55;;;4.32;;
23578;SDS011;11967;50.852;4.400;2022-12-29T17:06:34;19.23;;;4.35;;
23578;SDS011;11967;50.852;4.400;2022-12-29T17:08:59;22.63;;;4.00;;
23578;SDS011;11967;50.852;4.400;2022-12-29T17:11:27;23.13;;;4.00;;
23578;SDS011;11967;50.852;4.400;2022-12-29T17:16:44;16.50;;;4.18;;
23578;SDS011;11967;50.852;4.400;2022-12-29T17:19:12;16.95;;;3.97;;
23578;SDS011;11967;50.852;4.400;2022-12-29T17:21:42;21.85;;;3.80;;
23578;SDS011;11967;50.852;4.400;2022-12-29T17:24:15;21.75;;;4.53;;
23578;SDS011;11967;50.852;4.400;2022-12-29T17:26:43;20.42;;;3.92;;
23578;SDS011;11967;50.852;4.400;2022-12-29T17:31:45;24.70;;;3.95;;
23578;SDS011;11967;50.852;4.400;2022-12-29T17:34:11;21.15;;;3.90;;
23578;SDS011;11967;50.852;4.400;2022-12-29T17:36:38;19.83;;;3.63;;
23578;SDS011;11967;50.852;4.400;2022-12-29T17:39:04;19.25;;;4.10;;
23578;SDS011;11967;50.852;4.400;2022-12-29T17:41:30;21.25;;;3.97;;
23578;SDS011;11967;50.852;4.400;2022-12-29T17:43:58;15.27;;;2.95;;
23578;SDS011;11967;50.852;4.400;2022-12-29T17:46:25;18.33;;;4.22;;
23578;SDS011;11967;50.852;4.400;2022-12-29T17:48:51;22.67;;;4.25;;
23578;SDS011;11967;50.852;4.400;2022-12-29T17:51:16;19.20;;;3.70;;
23578;SDS011;11967;50.852;4.400;2022-12-29T17:53:44;15.13;;;3.30;;
23578;SDS011;11967;50.852;4.400;2022-12-29T17:56:10;22.30;;;4.18;;
23578;SDS011;11967;50.852;4.400;2022-12-29T17:58:35;25.10;;;3.70;;
23578;SDS011;11967;50.852;4.400;2022-12-29T18:01:02;23.10;;;3.88;;
23578;SDS011;11967;50.852;4.400;2022-12-29T18:03:28;20.60;;;4.10;;
23578;SDS011;11967;50.852;4.400;2022-12-29T18:05:58;20.65;;;4.05;;
23578;SDS011;11967;50.852;4.400;2022-12-29T18:08:24;17.90;;;3.67;;
23578;SDS011;11967;50.852;4.400;2022-12-29T18:10:50;15.88;;;3.38;;